Terminal Aerodrome Forecast
Issued by NWS Greer, SC

Home | Current Version | Previous Version | Text Only | Print | Product List | Glossary On
Versions: 1 2 3 4 5 6 7 8 9 10 11 12 13 14 15 16 17 18 19 20 21 22
000
FTUS42 KGSP 300538
TAFAVL
TAF
KAVL 300538Z 3006/3106 00000KT P6SM FEW040 FEW150
     FM301000 VRB02KT 5SM BR FEW150
      TEMPO 3010/3012 2SM BR SCT003
     FM301300 VRB02KT P6SM FEW150=

USA.gov is the U.S. government's official web portal to all federal, state and local government web resources and services.